Username
Password
 
Info Terbaru :
  

Jackpot Winner Texas Poker

Kini Telah hadir Jackpot SUPER ROYAL FLUSH

Kini Telah hadir Jackpot 2000 (khusus table VIP keatas).

Ikutilah global jackpot yang tersedia di system kami, dengan system jackpot terbaru dan pertama di indonesia, anda dapat membeli jackpot dengan harga 100 rupiah saja dan menangkan hadiahnya hingga puluhan juta rupiah.

Jackpot bukanlah suatu keharusan untuk dibeli, namun kami memberikan suatu fitur tambahan untuk member tercinta dari www.dppkr.com.

Terdapat tiga pilihan harga jackpot yang bisa anda beli yaitu :100,500,1000 dan 2000(khusus table VIP Keatas) rupiah.

Hadiah dari Multi jackpot system www.dppkr.com

  1. full house x 10 harga jackpot yang anda beli.
      (contoH:anda membeli 1000 maka:1000 X10 = 10.000)
  2. four of kind x 250 harga jackpot yang anda beli
      (contoH:anda membeli 1000 maka:1000 X250 = 250.000)
  3. Straight flush x 1200
      (contoH:anda membeli 1000 maka:1000 X1200 = 1.200.000)
  4. Royal flush x 10000 harga jackpot yang anda beli
      (contoH:anda membeli 1000 maka:1000 X10000 = 10.000.000)
  5. SUPER ROYAL FLUSH x 30000 harga jackpot yang anda beli
      (contoH:anda membeli 1000 maka:1000 X30000 = 30.000.000)

Kondisi kartu

  1. full house adalah kondisi kartu dimana kartu anda dan kartu tengah dengan total 7 kartu bisa mendapatkan nilai 5 kartu dengan kombinasi 1 tris(three of kind) dan 1 pair, contoh 3 kartu 10 dan 2 kartu 5
  2. Four of kind adalah kondisi kartu dimana kartu anda dan kartu tengah dengan total 7 kartu bisa mendapatkan nilai 5 kartu dengan kombinasi 4 kartu yang sama jumlah dan 1 kartu apapun juga contoh anda mendapatkan 4 buah kartu angka 3 dan 1 kartu apapun.
  3. Straight flush adalah kondisi kartu dimana kartu anda dan kartu tengah dengan total 7 kartu bisa mendapatkan nilai 5 kartu dengan kombinasi seri / staright dengan kembang yang sama contoh : urutan kartu dari angka 5, 6, 7, 8 , 9 10 dengan kembang yg sama misalnya as hati
  4. Royal flush adalah kondisi kartu dimana kartu anda dan kartu tengah dengan total 7 kartu bisa mendapatkan nilai 5 kartu dengan kombinasi seri / staright dengan kembang yang sama tetapi kartu tersebut haruslah dimulai dari 10. contoh 10, Queen, Jack, King dan aces dengan kembang yang sama
  5. Super Royal flush adalah kondisi kartu dimana Kedua kartu anda digabung dengan 3 kartu pertama meja haruslah royal flush. contoh kartu anda10,Queen dan 3 kartu pertama meja adalah Jack, King dan aces dengan kembang yang sama

Demikian adalah penjelasan dari Multi Jackpot www.dppkr.com terima kasih dan selamat bermain salam hoki dari kami


Jackpot Winner

TOP SUPER ROYAL FLUSH
No. Tanggal Nama Price Win
1 26/05 05:27 CYCLOPGG01 Super Royal flush 3,000,000
2 26/05 04:36 WULL_KK Super Royal flush 6,000,000
3 25/05 20:21 SIKAT26 Super Royal flush 6,000,000
4 25/05 16:23 ABOOTT Super Royal flush 60,000,000
5 25/05 15:54 DR1NKNG Super Royal flush 15,000,000
TOP ROYAL FLUSH
No. Tanggal Nama Price Win
1 26/05 09:03 RIEFKHA16_ Royal flush 5,000,000
2 26/05 08:45 UJANGJAY Royal flush 5,000,000
3 26/05 08:38 A5B73158 Royal flush 1,000,000
4 26/05 08:24 NGELETO Royal flush 10,000,000
5 26/05 08:23 TPHLCANLAW Royal flush 2,000,000
TOP STRAIGHT FLUSH
No. Tanggal Nama Price Win
1 26/05 09:05 BANG_BLAYY Straight Flush 240,000
2 26/05 09:03 SB23 Straight Flush 1,200,000
3 26/05 09:03 EMPISG134 Straight Flush 600,000
4 26/05 09:00 ROOYAL01 Straight Flush 600,000
5 26/05 09:00 BONEBIRU71 Straight Flush 1,200,000
LATEST JACKPOT
No. Tanggal Nama Price Win
1 26/05 09:06 D3B58836 Full House 2,000
2 26/05 09:06 CIKIDAW101 Full House 2,000
3 26/05 09:06 BALAKHOKI Full House 2,000
4 26/05 09:06 SINSUN Full House 10,000
5 26/05 09:06 DOPIT68 Full House 5,000
6 26/05 09:06 HK4DTEMPRAMEN Full House 2,000
7 26/05 09:06 BOWO8003 Four Of A Kind 50,000
8 26/05 09:06 MONGKEY21 Full House 5,000
9 26/05 09:06 F4A4 Full House 5,000
10 26/05 09:06 ERNACHAN Full House 5,000
11 26/05 09:05 BCD58BDB Full House 5,000
12 26/05 09:05 ZF87 Full House 10,000
13 26/05 09:05 JAMEER Four Of A Kind 125,000
14 26/05 09:05 ARB88357 Full House 5,000
15 26/05 09:05 ABOKMICIN1 Full House 5,000
16 26/05 09:05 OMPOENK Full House 5,000
17 26/05 09:05 WEBELORD Full House 5,000
18 26/05 09:05 DECHICA69 Full House 1,000
19 26/05 09:05 DULS1812 Full House 2,000
20 26/05 09:05 JUANCIKO Four Of A Kind 50,000
21 26/05 09:05 THAURUS05 Full House 2,000
22 26/05 09:05 CENTIL78 Full House 2,000
23 26/05 09:05 ARMY_XXX Full House 2,000
24 26/05 09:05 SITUOK31 Full House 1,000
25 26/05 09:05 PAGCOR89 Full House 10,000
26 26/05 09:05 Y0Y0X69 Full House 1,000
27 26/05 09:05 PANSERX Full House 10,000
28 26/05 09:05 RAJAMAINQQ Full House 1,000
29 26/05 09:05 BATUAHJP Full House 5,000
30 26/05 09:05 POWER1234 Full House 10,000
31 26/05 09:05 M3L1S4112 Full House 2,000
32 26/05 09:05 KOCERR Full House 1,000
33 26/05 09:05 SRNEKAMIATI Full House 2,000
34 26/05 09:05 WAK94 Full House 5,000
35 26/05 09:05 HUTOMO212 Full House 5,000
36 26/05 09:05 JERANG Full House 5,000
37 26/05 09:05 ECHELONS_C Full House 5,000
38 26/05 09:05 BAGU5X Full House 5,000
39 26/05 09:05 PKR380 Full House 5,000
40 26/05 09:05 ANIWIN Full House 2,000
41 26/05 09:05 MDRKELEDAI97 Full House 1,000
42 26/05 09:05 SITUOK31 Full House 1,000
43 26/05 09:05 LOSTCAROL Full House 10,000
44 26/05 09:05 ICOTIU Full House 2,000
45 26/05 09:05 CHOPPER69 Full House 1,000
46 26/05 09:05 BANG_BLAYY Straight Flush 240,000
47 26/05 09:05 WAGABOY Full House 1,000
48 26/05 09:05 DOKENOBAGI Four Of A Kind 25,000
49 26/05 09:04 YOGA_MGJ Full House 5,000
50 26/05 09:04 30_06_1994 Full House 10,000


Situs Poker Online
Dewapoker.com Hadir untuk semua pecinta permainan kartu poker online yang khususnya berada di asia. Dengan system teknology baru dan server kecepatan tinggi akan membuat permainan poker anda lebih seru dan menarik bersama teman2x anda maupun saingan anda. Cukup lakukan login dan langsung bermain tanpa download. Dewapoker.com dengan encrypsi server yang tinggi akan menjamin keamanan data para member.
Terms & Conditions Link Alternatif Video Dewapoker
© Copyright 2012 - 2018 Dewa Poker. All right reserved.
Dewa.FM